Time,TemperatureF,DewpointF,PressureIn,WindDirection,WindDirectionDegrees,WindSpeedMPH,WindSpeedGustMPH,Humidity,HourlyPrecipIn,Conditions,Clouds,dailyrainin,SolarRadiationWatts/m^2,SoftwareType,DateUTC
2013-10-08 00:14:00,43.0,42.0,-100.00,NNW,345,0.0,0.0,98,0.00,,,0.00,0.000000,,2013-10-08 04:14:00,
2013-10-08 00:23:00,43.0,42.0,-100.00,NNW,345,0.0,0.0,98,0.00,,,0.00,0.000000,,2013-10-08 04:23:00,
2013-10-08 00:34:00,43.0,42.0,-100.00,NNW,345,0.0,0.0,98,0.00,,,0.00,0.000000,,2013-10-08 04:34:00,
2013-10-08 00:43:00,43.0,42.0,-100.00,NNW,345,0.0,0.0,98,0.00,,,0.00,0.000000,,2013-10-08 04:43:00,
2013-10-08 01:13:00,42.0,41.0,-100.00,WNW,300,0.0,0.0,98,0.00,,,0.00,0.000000,,2013-10-08 05:13:00,
2013-10-08 01:22:00,42.0,41.0,-100.00,WNW,300,0.0,0.0,98,0.00,,,0.00,0.000000,,2013-10-08 05:22:00,
2013-10-08 01:34:00,42.0,41.0,-100.00,WNW,300,0.0,0.0,98,0.00,,,0.00,0.000000,,2013-10-08 05:34:00,
2013-10-08 01:42:00,42.0,41.0,-100.00,WNW,300,0.0,0.0,98,0.00,,,0.00,0.000000,,2013-10-08 05:42:00,
2013-10-08 02:12:00,41.0,40.0,-100.00,NE,38,0.0,0.0,98,0.00,,,0.00,0.000000,,2013-10-08 06:12:00,
2013-10-08 02:22:00,41.0,40.0,-100.00,NE,38,0.0,0.0,98,0.00,,,0.00,0.000000,,2013-10-08 06:22:00,
2013-10-08 02:32:00,41.0,40.0,-100.00,NE,38,0.0,0.0,98,0.00,,,0.00,0.000000,,2013-10-08 06:32:00,
2013-10-08 02:42:00,41.0,40.0,-100.00,NE,38,0.0,0.0,98,0.00,,,0.00,0.000000,,2013-10-08 06:42:00,
2013-10-08 03:12:00,41.0,40.0,-100.00,NW,314,0.0,2.0,98,0.00,,,0.00,0.000000,,2013-10-08 07:12:00,
2013-10-08 03:22:00,41.0,40.0,-100.00,NW,314,0.0,2.0,98,0.00,,,0.00,0.000000,,2013-10-08 07:22:00,
2013-10-08 03:32:00,41.0,40.0,-100.00,NW,314,0.0,2.0,98,0.00,,,0.00,0.000000,,2013-10-08 07:32:00,
2013-10-08 03:42:00,41.0,40.0,-100.00,NW,314,0.0,2.0,98,0.00,,,0.00,0.000000,,2013-10-08 07:42:00,
2013-10-08 04:12:00,41.0,40.0,-100.00,NE,54,0.0,0.0,98,0.00,,,0.00,0.000000,,2013-10-08 08:12:00,
2013-10-08 04:22:00,41.0,40.0,-100.00,NE,54,0.0,0.0,98,0.00,,,0.00,0.000000,,2013-10-08 08:22:00,
2013-10-08 04:32:00,41.0,40.0,-100.00,NE,54,0.0,0.0,98,0.00,,,0.00,0.000000,,2013-10-08 08:32:00,
2013-10-08 04:42:00,41.0,40.0,-100.00,NE,54,0.0,0.0,98,0.00,,,0.00,0.000000,,2013-10-08 08:42:00,
2013-10-08 05:12:00,40.0,39.0,-100.00,WNW,302,0.0,2.0,98,0.00,,,0.00,0.000000,,2013-10-08 09:12:00,
2013-10-08 05:22:00,40.0,39.0,-100.00,WNW,302,0.0,2.0,98,0.00,,,0.00,0.000000,,2013-10-08 09:22:00,
2013-10-08 05:33:00,40.0,39.0,-100.00,WNW,302,0.0,2.0,98,0.00,,,0.00,0.000000,,2013-10-08 09:33:00,
2013-10-08 05:43:00,40.0,39.0,-100.00,WNW,302,0.0,2.0,98,0.00,,,0.00,0.000000,,2013-10-08 09:43:00,
2013-10-08 06:13:00,40.0,40.0,-100.00,SSE,156,0.0,1.0,99,0.00,,,0.00,0.000000,,2013-10-08 10:13:00,
2013-10-08 06:23:00,40.0,40.0,-100.00,SSE,156,0.0,1.0,99,0.00,,,0.00,0.000000,,2013-10-08 10:23:00,
2013-10-08 06:33:00,40.0,40.0,-100.00,SSE,156,0.0,1.0,99,0.00,,,0.00,0.000000,,2013-10-08 10:33:00,
2013-10-08 06:42:00,40.0,40.0,-100.00,SSE,156,0.0,1.0,99,0.00,,,0.00,0.000000,,2013-10-08 10:42:00,
2013-10-08 07:12:00,40.0,40.0,-100.00,NNW,347,0.0,0.0,99,0.00,,,0.00,0.000000,,2013-10-08 11:12:00,
2013-10-08 07:22:00,40.0,40.0,-100.00,NNW,347,0.0,0.0,99,0.00,,,0.00,0.000000,,2013-10-08 11:22:00,
2013-10-08 07:33:00,40.0,40.0,-100.00,NNW,347,0.0,0.0,99,0.00,,,0.00,0.000000,,2013-10-08 11:33:00,
2013-10-08 07:42:00,40.0,40.0,-100.00,NNW,347,0.0,0.0,99,0.00,,,0.00,0.000000,,2013-10-08 11:42:00,
2013-10-08 08:12:00,40.0,40.0,-100.00,NE,51,8.0,14.0,99,0.00,,,0.00,1.000000,,2013-10-08 12:12:00,
2013-10-08 08:22:00,40.0,40.0,-100.00,NE,51,8.0,14.0,99,0.00,,,0.00,1.000000,,2013-10-08 12:22:00,
2013-10-08 08:32:00,40.0,40.0,-100.00,NE,51,8.0,14.0,99,0.00,,,0.00,1.000000,,2013-10-08 12:32:00,
2013-10-08 08:42:00,40.0,40.0,-100.00,NE,51,8.0,14.0,99,0.00,,,0.00,1.000000,,2013-10-08 12:42:00,
2013-10-08 09:12:00,47.0,47.0,-100.00,ENE,66,1.0,15.0,99,0.00,,,0.00,96.000000,,2013-10-08 13:12:00,
2013-10-08 09:22:00,47.0,47.0,-100.00,ENE,66,1.0,15.0,99,0.00,,,0.00,96.000000,,2013-10-08 13:22:00,
2013-10-08 09:32:00,47.0,47.0,-100.00,ENE,66,1.0,15.0,99,0.00,,,0.00,96.000000,,2013-10-08 13:32:00,
2013-10-08 09:42:00,47.0,47.0,-100.00,ENE,66,1.0,15.0,99,0.00,,,0.00,96.000000,,2013-10-08 13:42:00,
2013-10-08 10:42:00,54.0,48.0,-100.00,East,88,5.0,7.0,81,0.00,,,0.00,294.000000,,2013-10-08 14:42:00,
2013-10-08 11:22:00,59.0,46.0,-100.00,East,85,11.0,15.0,62,0.00,,,0.00,497.000000,,2013-10-08 15:22:00,
2013-10-08 11:33:00,59.0,46.0,-100.00,East,85,11.0,15.0,62,0.00,,,0.00,497.000000,,2013-10-08 15:33:00,
2013-10-08 11:44:00,59.0,46.0,-100.00,East,85,11.0,15.0,62,0.00,,,0.00,497.000000,,2013-10-08 15:44:00,
2013-10-08 12:13:00,61.0,43.0,-100.00,East,87,11.0,19.0,52,0.00,,,-99.99,668.000000,,2013-10-08 16:13:00,
2013-10-08 12:23:00,61.0,43.0,-100.00,East,87,11.0,19.0,52,0.00,,,-99.99,668.000000,,2013-10-08 16:23:00,
2013-10-08 12:33:00,61.0,43.0,-100.00,East,87,11.0,19.0,52,0.00,,,-99.99,668.000000,,2013-10-08 16:33:00,
2013-10-08 12:42:00,61.0,43.0,-100.00,East,87,11.0,19.0,52,0.00,,,-99.99,668.000000,,2013-10-08 16:42:00,
2013-10-08 13:12:00,64.0,43.0,-100.00,East,87,9.0,15.0,47,0.00,,,0.00,787.000000,,2013-10-08 17:12:00,
2013-10-08 13:23:00,64.0,43.0,-100.00,East,87,9.0,15.0,47,0.00,,,0.00,787.000000,,2013-10-08 17:23:00,
2013-10-08 13:33:00,64.0,43.0,-100.00,East,87,9.0,15.0,47,0.00,,,0.00,787.000000,,2013-10-08 17:33:00,
2013-10-08 13:42:00,64.0,43.0,-100.00,East,87,9.0,15.0,47,0.00,,,0.00,787.000000,,2013-10-08 17:42:00,
2013-10-08 14:11:00,66.0,44.0,-100.00,East,84,9.0,17.0,45,0.00,,,0.00,836.000000,,2013-10-08 18:11:00,
2013-10-08 14:22:00,66.0,44.0,-100.00,East,84,9.0,17.0,45,0.00,,,0.00,836.000000,,2013-10-08 18:22:00,
2013-10-08 14:32:00,66.0,44.0,-100.00,East,84,9.0,17.0,45,0.00,,,0.00,836.000000,,2013-10-08 18:32:00,
2013-10-08 14:42:00,66.0,44.0,-100.00,East,84,9.0,17.0,45,0.00,,,0.00,836.000000,,2013-10-08 18:42:00,
2013-10-08 15:11:00,66.0,40.0,-100.00,East,91,8.0,18.0,39,0.00,,,0.00,821.000000,,2013-10-08 19:11:00,
2013-10-08 15:22:00,66.0,40.0,-100.00,East,91,8.0,18.0,39,0.00,,,0.00,821.000000,,2013-10-08 19:22:00,
2013-10-08 15:32:00,66.0,40.0,-100.00,East,91,8.0,18.0,39,0.00,,,0.00,821.000000,,2013-10-08 19:32:00,
2013-10-08 15:42:00,66.0,40.0,-100.00,East,91,8.0,18.0,39,0.00,,,0.00,821.000000,,2013-10-08 19:42:00,
2013-10-08 16:12:00,67.0,41.0,-100.00,East,89,9.0,16.0,39,0.00,,,0.00,735.000000,,2013-10-08 20:12:00,
2013-10-08 16:22:00,67.0,41.0,-100.00,East,89,9.0,16.0,39,0.00,,,0.00,735.000000,,2013-10-08 20:22:00,
2013-10-08 16:32:00,67.0,41.0,-100.00,East,89,9.0,16.0,39,0.00,,,0.00,735.000000,,2013-10-08 20:32:00,
2013-10-08 16:42:00,67.0,41.0,-100.00,East,89,9.0,16.0,39,0.00,,,0.00,735.000000,,2013-10-08 20:42:00,
2013-10-08 17:12:00,68.0,42.0,-100.00,East,82,7.0,14.0,39,0.00,,,0.00,586.000000,,2013-10-08 21:12:00,
2013-10-08 17:22:00,68.0,42.0,-100.00,East,82,7.0,14.0,39,0.00,,,0.00,586.000000,,2013-10-08 21:22:00,
2013-10-08 17:34:00,68.0,42.0,-100.00,East,82,7.0,14.0,39,0.00,,,0.00,586.000000,,2013-10-08 21:34:00,
2013-10-08 17:44:00,68.0,42.0,-100.00,East,82,7.0,14.0,39,0.00,,,0.00,586.000000,,2013-10-08 21:44:00,
2013-10-08 17:47:00,67.0,43.0,-100.00,East,82,8.0,14.0,41,0.00,,,0.00,390.000000,,2013-10-08 21:47:00,
2013-10-08 18:24:00,67.0,43.0,-100.00,East,82,8.0,14.0,41,0.00,,,0.00,390.000000,,2013-10-08 22:24:00,
2013-10-08 18:32:00,67.0,43.0,-100.00,East,82,8.0,14.0,41,0.00,,,0.00,390.000000,,2013-10-08 22:32:00,
2013-10-08 19:12:00,64.0,43.0,-100.00,East,80,5.0,12.0,46,0.00,,,0.00,172.000000,,2013-10-08 23:12:00,
2013-10-08 19:23:00,64.0,43.0,-100.00,East,80,5.0,12.0,46,0.00,,,0.00,172.000000,,2013-10-08 23:23:00,
2013-10-08 19:34:00,64.0,43.0,-100.00,East,80,5.0,12.0,46,0.00,,,0.00,172.000000,,2013-10-08 23:34:00,
2013-10-08 19:42:00,64.0,43.0,-100.00,East,80,5.0,12.0,46,0.00,,,0.00,172.000000,,2013-10-08 23:42:00,
2013-10-08 20:22:00,56.0,44.0,-100.00,NE,41,1.0,9.0,64,0.00,,,0.00,14.000000,,2013-10-09 00:22:00,
2013-10-08 20:32:00,56.0,44.0,-100.00,NE,41,1.0,9.0,64,0.00,,,0.00,14.000000,,2013-10-09 00:32:00,
2013-10-08 20:43:00,56.0,44.0,-100.00,NE,41,1.0,9.0,64,0.00,,,0.00,14.000000,,2013-10-09 00:43:00,
2013-10-08 21:22:00,50.0,46.0,-100.00,ENE,57,0.0,2.0,86,0.00,,,0.00,0.000000,,2013-10-09 01:22:00,
2013-10-08 21:32:00,50.0,46.0,-100.00,ENE,57,0.0,2.0,86,0.00,,,0.00,0.000000,,2013-10-09 01:32:00,
2013-10-08 21:43:00,50.0,46.0,-100.00,ENE,57,0.0,2.0,86,0.00,,,0.00,0.000000,,2013-10-09 01:43:00,
2013-10-08 22:13:00,49.0,46.0,-100.00,NE,47,0.0,0.0,90,0.00,,,0.00,0.000000,,2013-10-09 02:13:00,
2013-10-08 22:23:00,49.0,46.0,-100.00,NE,47,0.0,0.0,90,0.00,,,0.00,0.000000,,2013-10-09 02:23:00,
2013-10-08 22:32:00,49.0,46.0,-100.00,NE,47,0.0,0.0,90,0.00,,,0.00,0.000000,,2013-10-09 02:32:00,
2013-10-08 22:42:00,49.0,46.0,-100.00,NE,47,0.0,0.0,90,0.00,,,0.00,0.000000,,2013-10-09 02:42:00,
2013-10-08 23:11:00,46.0,44.0,-100.00,North,350,0.0,0.0,94,0.00,,,0.00,0.000000,,2013-10-09 03:11:00,
2013-10-08 23:23:00,46.0,44.0,-100.00,North,350,0.0,0.0,94,0.00,,,0.00,0.000000,,2013-10-09 03:23:00,
2013-10-08 23:34:00,46.0,44.0,-100.00,North,350,0.0,0.0,94,0.00,,,0.00,0.000000,,2013-10-09 03:34:00,
2013-10-08 23:45:00,46.0,44.0,-100.00,North,350,0.0,0.0,94,0.00,,,0.00,0.000000,,2013-10-09 03:45:00,